Time;durP1;ratioP1;P1;durP2;ratioP2;P2;SDS_P1;SDS_P2;PMS_P1;PMS_P2;Temp;Humidity;BMP_temperature;BMP_pressure;BME280_temperature;BME280_humidity;BME280_pressure;Samples;Min_cycle;Max_cycle;Signal;HPM_P1;HPM_P2
2022/10/31 00:02:25;;;;;;;29.15;14.68;;;;;;;13.48;70.16;100404.94;7738141;32;38986;-79
2022/10/31 00:06:42;;;;;;;34.40;15.63;;;;;;;13.61;69.86;100391.81;7724796;32;39977;-79
2022/10/31 00:10:58;;;;;;;33.75;15.65;;;;;;;13.75;69.60;100395.59;7735674;32;38069;-80
2022/10/31 00:15:14;;;;;;;31.95;14.23;;;;;;;13.24;71.27;100399.19;7724105;32;38111;-81
2022/10/31 00:19:30;;;;;;;31.15;15.50;;;;;;;13.22;71.59;100400.56;7737472;32;40060;-80
2022/10/31 00:23:47;;;;;;;32.10;14.40;;;;;;;13.23;71.52;100404.94;7737772;32;40808;-79
2022/10/31 00:28:05;;;;;;;31.08;14.38;;;;;;;13.48;70.55;100399.47;7737329;32;38551;-78
2022/10/31 00:32:22;;;;;;;28.55;13.90;;;;;;;13.17;71.37;100397.84;7737759;32;37586;-79
2022/10/31 00:36:38;;;;;;;25.65;13.25;;;;;;;12.54;73.89;100394.22;7728013;32;40170;-80
2022/10/31 00:40:54;;;;;;;28.27;14.30;;;;;;;13.29;71.30;100390.16;7710698;32;40014;-81
2022/10/31 00:45:11;;;;;;;27.00;12.80;;;;;;;13.50;70.34;100394.56;7710686;32;38083;-81
2022/10/31 00:49:27;;;;;;;21.27;11.80;;;;;;;13.25;70.86;100395.38;7731334;32;37000;-77
2022/10/31 00:53:43;;;;;;;32.58;12.00;;;;;;;13.09;70.97;100393.72;7737225;32;39018;-79
2022/10/31 00:57:59;;;;;;;22.60;12.60;;;;;;;12.83;71.95;100404.69;7734975;32;40014;-79
2022/10/31 01:02:16;;;;;;;32.53;13.20;;;;;;;13.14;70.79;100400.03;7710255;32;37920;-80
2022/10/31 01:06:32;;;;;;;31.12;13.68;;;;;;;12.54;72.92;100396.94;7710099;32;37269;-79
2022/10/31 01:11:18;;;;;;;23.33;12.57;;;;;;;13.04;71.24;100400.03;7710086;32;40172;-80
2022/10/31 01:15:35;;;;;;;59.75;14.20;;;;;;;13.09;70.91;100397.28;7709815;32;39925;-80
2022/10/31 01:19:51;;;;;;;28.02;13.13;;;;;;;13.32;70.06;100386.91;7713086;32;38039;-79
2022/10/31 01:24:07;;;;;;;68.68;13.57;;;;;;;13.17;70.65;100386.88;7717968;32;37739;-80
2022/10/31 01:28:23;;;;;;;73.07;14.95;;;;;;;12.98;71.41;100387.44;7719850;32;39047;-80
2022/10/31 01:32:45;;;;;;;35.92;14.38;;;;;;;12.60;73.01;100378.63;7713049;32;40758;-81
2022/10/31 01:37:01;;;;;;;28.92;13.43;;;;;;;13.36;70.44;100379.78;7712910;32;38660;-81
2022/10/31 01:41:20;;;;;;;29.00;13.68;;;;;;;13.46;69.86;100379.75;7713018;32;37756;-81
2022/10/31 01:45:37;;;;;;;75.68;14.35;;;;;;;13.21;70.79;100371.53;7712966;32;40087;-83
2022/10/31 01:49:56;;;;;;;127.03;16.48;;;;;;;12.54;73.08;100374.25;7711612;32;40022;-82
2022/10/31 01:54:15;;;;;;;54.50;15.43;;;;;;;12.28;74.69;100371.47;7716209;32;37969;-81
2022/10/31 01:58:32;;;;;;;26.98;13.68;;;;;;;12.81;72.57;100362.25;7739800;32;36921;-83
2022/10/31 02:02:49;;;;;;;34.67;13.32;;;;;;;12.80;72.50;100360.59;7739189;32;40110;-80
2022/10/31 02:07:30;;;;;;;34.28;15.45;;;;;;;13.09;71.26;100364.44;7739398;32;39623;-79
2022/10/31 02:11:46;;;;;;;30.42;13.13;;;;;;;12.90;72.07;100355.13;7739250;32;37941;-80
2022/10/31 02:16:03;;;;;;;24.27;13.35;;;;;;;13.34;70.66;100365.53;7725504;32;37201;-80
2022/10/31 02:20:24;;;;;;;27.15;13.18;;;;;;;13.46;70.14;100363.31;7739254;32;40172;-79
2022/10/31 02:24:46;;;;;;;26.27;13.48;;;;;;;13.25;70.79;100350.75;7718731;32;39515;-79
2022/10/31 02:29:11;;;;;;;36.08;13.75;;;;;;;13.26;70.65;100352.37;7711714;32;38085;-79
2022/10/31 02:33:44;;;;;;;37.13;13.68;;;;;;;13.49;70.01;100356.47;7712301;32;37310;-79
2022/10/31 02:38:39;;;;;;;28.50;13.73;;;;;;;13.44;69.88;100349.09;7712347;32;40228;-79
2022/10/31 02:43:12;;;;;;;33.42;13.23;;;;;;;13.16;71.42;100358.69;7712009;32;41471;-77
2022/10/31 02:47:37;;;;;;;35.25;13.55;;;;;;;13.31;71.19;100355.09;7711437;32;39664;-79
2022/10/31 02:51:53;;;;;;;65.30;14.52;;;;;;;13.39;70.36;100364.72;7725113;32;37386;-80
2022/10/31 02:56:17;;;;;;;133.48;17.00;;;;;;;13.32;70.65;100362.25;7721987;32;40595;-79
2022/10/31 03:00:58;;;;;;;256.08;20.30;;;;;;;13.05;71.27;100368.81;7712028;32;40061;-80
2022/10/31 03:05:27;;;;;;;379.92;23.73;;;;;;;12.90;71.68;100374.28;7711129;32;38829;-80
2022/10/31 03:10:20;;;;;;;204.27;18.60;;;;;;;12.40;73.48;100368.50;7711893;32;37159;-79
2022/10/31 03:14:42;;;;;;;181.50;19.73;;;;;;;12.52;73.91;100374.53;7700777;32;39458;-80
2022/10/31 03:19:15;;;;;;;28.83;13.70;;;;;;;12.55;73.47;100381.34;7711665;32;40930;-80
2022/10/31 03:23:32;;;;;;;43.53;13.48;;;;;;;13.08;71.44;100387.44;7710686;32;37667;-80
2022/10/31 03:27:49;;;;;;;132.80;15.07;;;;;;;12.86;71.91;100390.41;7737611;32;37948;-82
2022/10/31 03:32:22;;;;;;;28.62;12.63;;;;;;;13.09;71.46;100385.50;7724705;32;39034;-80
2022/10/31 03:36:40;;;;;;;24.63;11.85;;;;;;;13.12;71.31;100391.28;7738432;32;39928;-81
2022/10/31 03:40:58;;;;;;;29.10;13.25;;;;;;;13.19;70.85;100398.38;7724392;32;37889;-83
2022/10/31 03:45:21;;;;;;;22.62;11.52;;;;;;;13.39;70.16;100392.09;7738343;32;37463;-80
2022/10/31 03:49:37;;;;;;;23.38;11.48;;;;;;;13.12;70.75;100383.06;7709859;32;39392;-81
2022/10/31 03:53:57;;;;;;;30.33;12.40;;;;;;;13.19;70.52;100390.97;7712620;32;38122;-80
2022/10/31 03:58:16;;;;;;;28.87;11.98;;;;;;;13.42;69.73;100392.38;7724616;32;38076;-80
2022/10/31 04:02:41;;;;;;;23.67;11.32;;;;;;;13.11;70.21;100389.63;7724945;32;37804;-78
2022/10/31 04:06:59;;;;;;;22.45;11.43;;;;;;;13.54;68.73;100397.56;7724654;32;39874;-81
2022/10/31 04:11:18;;;;;;;26.98;11.27;;;;;;;13.61;68.54;100380.84;7736983;32;39929;-80
2022/10/31 04:15:35;;;;;;;34.40;12.02;;;;;;;13.67;68.51;100379.72;7709218;32;37950;-79
2022/10/31 04:19:51;;;;;;;27.23;11.32;;;;;;;13.58;68.59;100381.38;7709904;32;37374;-79
2022/10/31 04:24:07;;;;;;;46.03;12.07;;;;;;;13.35;69.16;100386.37;7712198;32;39418;-79
2022/10/31 04:28:23;;;;;;;36.30;12.48;;;;;;;13.41;68.85;100392.66;7737822;32;39603;-79
2022/10/31 04:32:40;;;;;;;32.20;11.40;;;;;;;13.14;69.74;100389.09;7737606;32;38864;-80
2022/10/31 04:36:56;;;;;;;38.28;11.90;;;;;;;13.14;69.91;100394.56;7737573;32;38024;-80
2022/10/31 04:41:12;;;;;;;29.25;11.93;;;;;;;13.24;69.43;100390.97;7732144;32;39646;-80
2022/10/31 04:45:28;;;;;;;104.70;14.55;;;;;;;12.97;70.66;100388.53;7710628;32;39931;-81
2022/10/31 04:49:45;;;;;;;195.30;17.17;;;;;;;12.99;70.91;100391.81;7710501;32;38765;-81
2022/10/31 04:54:01;;;;;;;116.25;15.77;;;;;;;13.08;70.38;100401.12;7711081;32;37285;-80
2022/10/31 04:58:17;;;;;;;27.25;14.23;;;;;;;12.91;71.22;100398.62;7737051;32;39531;-80
2022/10/31 05:02:33;;;;;;;39.60;14.27;;;;;;;13.00;70.63;100398.91;7737173;32;39766;-80
2022/10/31 05:06:49;;;;;;;221.95;18.92;;;;;;;12.69;72.09;100409.00;7737052;32;37738;-80
2022/10/31 05:11:06;;;;;;;31.77;14.18;;;;;;;12.77;71.54;100412.03;7736662;32;37863;-79
2022/10/31 05:15:24;;;;;;;72.05;14.43;;;;;;;13.05;70.83;100403.59;7736561;32;39395;-79
2022/10/31 05:19:41;;;;;;;29.02;12.73;;;;;;;13.44;69.21;100406.59;7736843;32;39347;-79
2022/10/31 05:23:57;;;;;;;87.30;14.93;;;;;;;13.08;70.42;100411.25;7735350;32;38170;-80
2022/10/31 05:28:13;;;;;;;327.50;21.20;;;;;;;13.27;70.16;100417.00;7710111;32;36942;-80
2022/10/31 05:32:29;;;;;;;269.23;19.05;;;;;;;12.86;71.70;100419.72;7708591;32;39396;-80
2022/10/31 05:36:45;;;;;;;148.32;15.50;;;;;;;13.00;71.06;100409.06;7709494;32;39617;-80
2022/10/31 05:41:01;;;;;;;238.52;19.12;;;;;;;12.81;71.90;100411.50;7714725;32;37779;-79
2022/10/31 05:45:18;;;;;;;42.28;12.73;;;;;;;12.98;71.51;100417.53;7736174;32;37636;-78
2022/10/31 05:49:34;;;;;;;76.37;15.18;;;;;;;13.12;72.26;100424.13;7722551;32;39261;-79
2022/10/31 05:53:51;;;;;;;76.80;16.10;;;;;;;13.04;72.67;100426.56;7735239;32;39886;-78
2022/10/31 05:58:07;;;;;;;36.20;13.93;;;;;;;12.99;72.02;100430.13;7728865;32;37946;-80
2022/10/31 06:02:23;;;;;;;74.22;14.60;;;;;;;13.30;70.62;100425.47;7735892;32;37020;-79
2022/10/31 06:06:39;;;;;;;96.37;16.67;;;;;;;13.65;69.15;100418.34;7739488;32;39058;-79
2022/10/31 06:10:55;;;;;;;108.07;16.08;;;;;;;12.90;72.44;100426.28;7737824;32;40577;-74
2022/10/31 06:15:12;;;;;;;53.30;15.43;;;;;;;12.24;75.07;100432.41;7739087;32;38877;-78
2022/10/31 06:19:28;;;;;;;52.80;15.32;;;;;;;12.98;72.08;100433.94;7739410;32;37982;-79
2022/10/31 06:23:44;;;;;;;54.08;14.20;;;;;;;13.21;71.12;100426.28;7739599;32;40066;-79
2022/10/31 06:28:01;;;;;;;69.30;19.87;;;;;;;13.51;70.33;100425.50;7712807;32;39624;-81
2022/10/31 06:32:17;;;;;;;81.10;16.48;;;;;;;13.31;71.23;100440.00;7725202;32;38185;-79
2022/10/31 06:36:33;;;;;;;33.78;16.23;;;;;;;13.23;71.65;100438.62;7716620;32;36995;-79
2022/10/31 06:40:49;;;;;;;41.50;17.50;;;;;;;13.65;70.23;100444.94;7718158;32;40587;-79
2022/10/31 06:45:06;;;;;;;74.62;16.73;;;;;;;13.49;70.90;100441.41;7739073;32;39752;-79
2022/10/31 06:49:22;;;;;;;40.53;17.00;;;;;;;13.49;71.50;100446.87;7738969;32;38904;-79
2022/10/31 06:53:38;;;;;;;41.17;18.67;;;;;;;13.89;69.91;100451.44;7734561;32;37186;-81
2022/10/31 06:57:59;;;;;;;38.75;19.37;;;;;;;13.98;69.73;100450.87;7713485;32;40103;-79
2022/10/31 07:02:18;;;;;;;63.87;17.27;;;;;;;13.77;70.86;100450.94;7733784;32;40545;-81
2022/10/31 07:06:34;;;;;;;248.45;20.52;;;;;;;13.03;73.53;100450.37;7735404;32;37745;-81
2022/10/31 07:10:55;;;;;;;386.83;28.42;;;;;;;12.91;74.05;100458.03;7723283;32;37132;-82
2022/10/31 07:15:12;;;;;;;235.80;20.67;;;;;;;13.01;73.46;100462.72;7738550;32;38707;-79
2022/10/31 07:19:28;;;;;;;46.70;17.30;;;;;;;13.46;71.89;100467.41;7714393;32;40968;-80
2022/10/31 07:23:47;;;;;;;51.03;20.92;;;;;;;13.49;72.00;100466.06;7711759;32;38862;-80
2022/10/31 07:28:03;;;;;;;95.50;20.58;;;;;;;13.55;72.17;100475.06;7712045;32;37263;-80
2022/10/31 07:32:19;;;;;;;34.40;16.80;;;;;;;13.60;71.35;100486.84;7711756;32;39479;-81
2022/10/31 07:36:35;;;;;;;38.35;17.27;;;;;;;13.86;70.01;100476.66;7711628;32;40457;-80
2022/10/31 07:40:52;;;;;;;35.90;16.65;;;;;;;13.53;71.21;100487.13;7711738;32;37779;-81
2022/10/31 07:45:11;;;;;;;36.20;17.85;;;;;;;13.43;71.28;100487.13;7737080;32;37371;-80
2022/10/31 07:49:27;;;;;;;50.85;20.48;;;;;;;13.53;71.25;100483.56;7719357;32;39120;-80
2022/10/31 07:53:44;;;;;;;41.45;18.60;;;;;;;13.97;69.93;100482.97;7717965;32;39987;-83
2022/10/31 07:58:06;;;;;;;42.90;19.02;;;;;;;13.96;70.12;100480.50;7739852;32;38813;-83
2022/10/31 08:02:22;;;;;;;35.70;18.27;;;;;;;14.11;69.49;100480.47;7738662;32;37310;-80
2022/10/31 08:06:38;;;;;;;37.67;18.62;;;;;;;13.96;70.45;100481.31;7727284;32;40096;-80
2022/10/31 08:10:57;;;;;;;40.15;18.35;;;;;;;14.01;70.26;100483.25;7711398;32;39936;-82
2022/10/31 08:15:14;;;;;;;36.38;18.45;;;;;;;14.08;70.56;100481.84;7711156;32;38758;-83
2022/10/31 08:19:30;;;;;;;28.50;15.85;;;;;;;14.17;70.42;100487.56;7711291;32;38073;-85
2022/10/31 08:23:46;;;;;;;32.83;15.90;;;;;;;14.44;68.62;100472.69;7711663;32;39366;-80
2022/10/31 08:28:03;;;;;;;33.30;16.12;;;;;;;14.20;69.05;100475.22;7710509;32;39829;-83
2022/10/31 08:32:23;;;;;;;39.30;16.85;;;;;;;14.05;68.88;100484.31;7711099;32;37709;-82
2022/10/31 08:36:44;;;;;;;29.90;15.07;;;;;;;14.07;69.34;100487.59;7711170;32;37462;-81
2022/10/31 08:41:00;;;;;;;34.70;16.45;;;;;;;14.19;69.41;100482.62;7711152;32;39390;-79
2022/10/31 08:45:17;;;;;;;30.17;14.95;;;;;;;13.92;70.11;100484.87;7733244;32;39827;-81
2022/10/31 08:49:33;;;;;;;30.23;15.20;;;;;;;14.28;69.08;100489.19;7718212;32;38238;-83
2022/10/31 08:53:49;;;;;;;27.87;13.95;;;;;;;14.51;68.01;100484.16;7737733;32;37815;-82
2022/10/31 08:58:08;;;;;;;39.42;15.75;;;;;;;14.53;67.27;100483.88;7724376;32;39390;-81
2022/10/31 09:02:24;;;;;;;32.95;16.17;;;;;;;14.22;68.61;100482.06;7715893;32;40858;-81
2022/10/31 09:06:41;;;;;;;29.33;14.30;;;;;;;14.51;68.13;100486.91;7721128;32;38932;-81
2022/10/31 09:11:16;;;;;;;30.25;15.15;;;;;;;14.72;67.39;100476.66;7710338;32;38111;-80
2022/10/31 09:15:34;;;;;;;29.10;14.48;;;;;;;14.70;67.52;100486.31;7710444;32;40284;-80
2022/10/31 09:19:50;;;;;;;29.50;14.68;;;;;;;14.54;67.92;100489.09;7696571;32;40117;-80
2022/10/31 09:24:06;;;;;;;25.30;14.07;;;;;;;14.64;68.19;100490.97;7696395;32;38063;-82
2022/10/31 09:28:23;;;;;;;27.58;14.87;;;;;;;14.81;67.30;100490.63;7703414;32;174915;-82
2022/10/31 09:32:39;;;;;;;25.45;15.02;;;;;;;14.77;67.14;100484.06;7709756;32;39864;-81
2022/10/31 09:36:56;;;;;;;34.63;15.60;;;;;;;14.83;67.22;100488.41;7708686;32;40856;-80
2022/10/31 09:42:02;;;;;;;27.98;14.85;;;;;;;15.02;66.66;100494.91;7712953;32;39088;-82
2022/10/31 09:46:28;;;;;;;32.95;16.80;;;;;;;14.62;68.09;100488.50;7695571;32;38052;-82
2022/10/31 09:50:57;;;;;;;37.15;16.83;;;;;;;14.70;67.44;100492.59;7714038;32;40200;-80
2022/10/31 09:55:35;;;;;;;28.17;15.23;;;;;;;14.96;66.34;100487.78;7724754;32;40156;-83
2022/10/31 09:59:51;;;;;;;34.72;17.40;;;;;;;14.82;66.91;100487.59;7739496;32;38871;-82
2022/10/31 10:04:44;;;;;;;35.47;17.23;;;;;;;15.01;66.59;100490.50;7739735;32;37546;-81
2022/10/31 10:09:01;;;;;;;29.80;15.43;;;;;;;14.73;67.80;100485.72;7739621;32;39301;-83
2022/10/31 10:13:23;;;;;;;26.67;15.00;;;;;;;15.28;65.99;100483.75;7739487;32;40860;-81
2022/10/31 10:18:00;;;;;;;33.20;15.30;;;;;;;15.37;65.49;100487.50;7735344;32;38116;-81
2022/10/31 10:22:27;;;;;;;30.73;14.93;;;;;;;15.16;65.94;100475.84;7718264;32;37207;-84
2022/10/31 10:26:51;;;;;;;35.05;16.70;;;;;;;14.56;68.01;100484.13;7699620;32;39386;-79
2022/10/31 10:31:14;;;;;;;28.90;15.80;;;;;;;14.98;66.78;100485.56;7721939;32;39627;-76
2022/10/31 10:35:35;;;;;;;26.55;13.82;;;;;;;15.29;65.77;100487.31;7739042;32;37876;-81
2022/10/31 10:39:55;;;;;;;27.08;14.77;;;;;;;15.35;65.15;100484.22;7716763;32;37334;-80
2022/10/31 10:44:12;;;;;;;29.50;15.32;;;;;;;14.89;66.75;100484.53;7711056;32;39821;-80
2022/10/31 10:48:43;;;;;;;27.42;14.07;;;;;;;15.22;65.15;100473.88;7711859;32;39989;-81
2022/10/31 10:53:35;;;;;;;28.35;14.65;;;;;;;15.05;65.73;100467.97;7712136;32;38572;-80
2022/10/31 10:58:06;;;;;;;30.20;15.38;;;;;;;15.43;65.15;100469.03;7673000;32;38155;-82
2022/10/31 11:02:30;;;;;;;31.25;16.23;;;;;;;15.46;64.83;100464.91;7720699;32;39312;-83
2022/10/31 11:06:59;;;;;;;32.17;16.37;;;;;;;14.82;66.38;100464.81;7738976;32;40851;-82
2022/10/31 11:11:18;;;;;;;32.60;15.60;;;;;;;15.15;65.83;100457.72;7738745;32;38553;-82
2022/10/31 11:15:48;;;;;;;31.95;16.35;;;;;;;14.87;66.92;100466.69;7723416;32;37178;-81
2022/10/31 11:20:14;;;;;;;32.78;15.90;;;;;;;15.22;65.62;100465.66;7711946;32;39396;-81
2022/10/31 11:24:39;;;;;;;27.98;14.98;;;;;;;15.11;66.23;100453.91;7711860;32;39997;-80
2022/10/31 11:28:59;;;;;;;33.00;15.65;;;;;;;15.29;65.43;100452.41;7711725;32;37725;-80
2022/10/31 11:33:37;;;;;;;36.60;16.30;;;;;;;15.19;65.49;100458.81;7711787;32;37963;-80
2022/10/31 11:38:05;;;;;;;30.98;15.80;;;;;;;15.33;65.33;100458.13;7701146;32;39036;-80
2022/10/31 11:42:24;;;;;;;31.27;16.27;;;;;;;14.96;66.67;100454.84;7725455;32;40521;-80
2022/10/31 11:46:50;;;;;;;30.65;15.00;;;;;;;15.43;64.89;100446.25;7723616;32;38734;-80
2022/10/31 11:51:06;;;;;;;29.65;16.15;;;;;;;15.16;65.94;100450.31;7725055;32;37262;-80
2022/10/31 11:55:39;;;;;;;28.12;13.55;;;;;;;15.47;64.54;100453.63;7738549;32;39635;-81
2022/10/31 12:00:04;;;;;;;27.62;14.95;;;;;;;15.63;64.50;100445.25;7734989;32;40704;-79
2022/10/31 12:04:29;;;;;;;29.90;15.02;;;;;;;15.53;64.12;100448.91;7714606;32;38970;-80
2022/10/31 12:08:46;;;;;;;29.55;14.05;;;;;;;15.49;64.38;100450.59;7711395;32;36906;-80
2022/10/31 12:13:32;;;;;;;32.85;14.87;;;;;;;15.62;63.97;100455.41;7715018;32;39381;-83
2022/10/31 12:18:24;;;;;;;30.70;14.43;;;;;;;15.47;64.39;100458.28;7700028;32;40897;-80
2022/10/31 12:22:58;;;;;;;24.65;14.02;;;;;;;15.51;64.58;100453.87;7704878;32;38691;-81
2022/10/31 12:27:47;;;;;;;33.30;14.95;;;;;;;15.48;65.06;100449.75;7734661;32;38098;-80
2022/10/31 12:32:31;;;;;;;27.40;14.00;;;;;;;15.23;65.22;100441.72;7716527;32;38987;-80
2022/10/31 12:37:06;;;;;;;28.90;15.48;;;;;;;15.52;64.51;100444.50;7711008;32;39830;-80
2022/10/31 12:41:54;;;;;;;28.12;14.52;;;;;;;15.17;65.31;100439.03;7712570;32;38191;-80
2022/10/31 12:46:40;;;;;;;25.48;13.50;;;;;;;15.58;63.94;100432.38;7716378;32;37778;-81
2022/10/31 12:51:02;;;;;;;28.52;13.80;;;;;;;15.28;64.82;100438.94;7723925;32;39432;-81
2022/10/31 12:56:07;;;;;;;29.02;14.05;;;;;;;15.62;64.07;100435.34;7721898;32;39856;-83
2022/10/31 13:00:24;;;;;;;27.30;13.95;;;;;;;15.08;65.57;100429.78;7700856;32;37934;-81
2022/10/31 13:04:50;;;;;;;26.48;13.82;;;;;;;14.91;66.16;100429.34;7709030;32;38302;-83
2022/10/31 13:09:12;;;;;;;29.37;14.87;;;;;;;14.78;66.61;100422.56;7710863;32;39308;-83
2022/10/31 13:13:38;;;;;;;29.00;13.43;;;;;;;14.68;66.95;100422.63;7709121;32;39969;-81
2022/10/31 13:18:01;;;;;;;24.70;12.90;;;;;;;15.25;64.88;100415.63;7732457;32;38881;-82
2022/10/31 13:22:24;;;;;;;26.20;13.80;;;;;;;15.40;64.25;100421.00;7710366;32;37855;-82
2022/10/31 13:26:57;;;;;;;27.20;13.67;;;;;;;15.18;65.04;100421.47;7697529;32;40177;-82
2022/10/31 13:31:13;;;;;;;23.95;13.07;;;;;;;15.28;64.76;100434.28;7721743;32;40492;-82
2022/10/31 13:35:58;;;;;;;27.30;13.60;;;;;;;14.89;66.07;100426.87;7710912;32;38282;-79
2022/10/31 13:40:38;;;;;;;24.73;13.45;;;;;;;15.11;65.15;100425.62;7735463;32;36851;-83
2022/10/31 13:44:54;;;;;;;23.20;13.40;;;;;;;14.77;65.79;100434.66;7737226;32;39407;-82
2022/10/31 13:49:28;;;;;;;26.30;14.50;;;;;;;15.20;64.90;100427.47;7736855;32;39938;-85
2022/10/31 13:53:51;;;;;;;26.70;14.60;;;;;;;15.10;65.08;100422.06;7737226;32;38157;-84
2022/10/31 13:58:30;;;;;;;27.10;13.57;;;;;;;15.10;64.92;100415.75;7696042;32;36870;-80
2022/10/31 14:02:57;;;;;;;27.98;15.98;;;;;;;14.68;66.00;100431.69;7713080;32;40141;-82
2022/10/31 14:07:20;;;;;;;29.30;15.35;;;;;;;14.71;66.10;100431.13;7720672;32;39644;-83
2022/10/31 14:11:37;;;;;;;31.23;17.62;;;;;;;14.90;65.47;100420.31;7709518;32;38039;-81
2022/10/31 14:16:00;;;;;;;28.77;15.05;;;;;;;14.98;65.13;100424.34;7717685;32;37300;-83
2022/10/31 14:20:16;;;;;;;25.02;13.57;;;;;;;14.64;66.19;100417.72;7696077;32;39272;-83
2022/10/31 14:24:35;;;;;;;25.05;13.88;;;;;;;14.53;67.14;100418.03;7711104;32;40731;-84
2022/10/31 14:28:53;;;;;;;31.35;16.10;;;;;;;14.80;65.98;100420.37;7720814;32;38420;-83
2022/10/31 14:33:36;;;;;;;28.20;14.50;;;;;;;14.67;66.33;100424.56;7720662;32;36818;-81
2022/10/31 14:38:15;;;;;;;37.00;14.95;;;;;;;14.74;65.78;100429.75;7712521;32;39962;-82
2022/10/31 14:42:52;;;;;;;28.70;16.30;;;;;;;14.31;67.35;100421.97;7711841;32;40747;-83
2022/10/31 14:47:49;;;;;;;27.42;16.05;;;;;;;14.44;67.00;100415.88;7732001;32;38350;-83
2022/10/31 14:52:08;;;;;;;31.48;18.37;;;;;;;14.48;67.47;100421.62;7731687;32;36747;-81
2022/10/31 14:56:32;;;;;;;32.72;16.87;;;;;;;14.63;66.63;100418.00;7727366;32;39291;-81
2022/10/31 15:00:50;;;;;;;29.45;16.30;;;;;;;14.79;65.90;100421.47;7741853;32;40174;-82
2022/10/31 15:05:11;;;;;;;25.88;13.93;;;;;;;14.64;66.12;100420.47;7739892;32;37410;-85
2022/10/31 15:09:33;;;;;;;29.42;14.23;;;;;;;14.54;66.28;100415.00;7740752;32;37037;-83
2022/10/31 15:13:51;;;;;;;33.85;17.60;;;;;;;14.53;66.12;100413.34;7724965;32;39787;-84
2022/10/31 15:18:15;;;;;;;38.60;19.08;;;;;;;14.37;66.73;100417.31;7724120;32;39057;-85
2022/10/31 15:22:32;;;;;;;44.75;20.90;;;;;;;14.59;66.10;100414.16;7711425;32;38144;-81
2022/10/31 15:26:51;;;;;;;31.62;17.40;;;;;;;14.49;66.26;100412.28;7710252;32;37052;-79
2022/10/31 15:31:15;;;;;;;100.05;46.80;;;;;;;14.51;66.27;100412.81;7711052;32;39932;-80
2022/10/31 15:35:32;;;;;;;40.97;25.25;;;;;;;14.46;66.51;100412.84;7712050;32;39569;-82
2022/10/31 15:39:49;;;;;;;36.88;17.27;;;;;;;14.41;66.89;100415.63;7724239;32;38871;-80
2022/10/31 15:44:20;;;;;;;30.40;16.60;;;;;;;14.18;67.09;100417.94;7728631;32;37400;-82
2022/10/31 15:48:38;;;;;;;28.00;16.23;;;;;;;14.11;67.92;100420.16;7723846;32;39482;-81
2022/10/31 15:52:54;;;;;;;31.70;16.92;;;;;;;14.04;68.21;100416.91;7711515;32;40005;-80
2022/10/31 15:57:11;;;;;;;33.15;18.42;;;;;;;14.23;67.38;100417.91;7707782;32;38826;-79
2022/10/31 16:01:30;;;;;;;32.40;17.70;;;;;;;14.16;67.79;100425.62;7724158;32;38314;-80
2022/10/31 16:05:56;;;;;;;32.25;16.25;;;;;;;13.94;68.25;100434.19;7724293;32;39122;-77
2022/10/31 16:10:25;;;;;;;32.65;16.80;;;;;;;14.22;67.51;100429.97;7723848;32;40084;-78
2022/10/31 16:14:41;;;;;;;37.38;17.70;;;;;;;14.16;67.85;100431.09;7721152;32;38117;-78
2022/10/31 16:19:04;;;;;;;33.78;17.23;;;;;;;13.90;68.90;100439.41;7710837;32;37170;-83
2022/10/31 16:23:27;;;;;;;34.70;17.20;;;;;;;13.80;69.34;100439.44;7724167;32;39308;-79
2022/10/31 16:27:54;;;;;;;35.60;16.42;;;;;;;13.82;69.45;100450.94;7709300;32;39747;-82
2022/10/31 16:32:32;;;;;;;34.80;16.20;;;;;;;14.06;68.59;100450.31;7723021;32;38039;-84
2022/10/31 16:36:49;;;;;;;31.35;15.30;;;;;;;14.31;67.60;100452.12;7720396;32;38098;-82
2022/10/31 16:41:06;;;;;;;31.55;15.90;;;;;;;14.13;68.00;100458.25;7716501;32;39435;-82
2022/10/31 16:45:31;;;;;;;32.97;16.05;;;;;;;13.84;69.05;100462.44;7710798;32;39880;-82
2022/10/31 16:49:49;;;;;;;31.02;16.00;;;;;;;13.71;69.57;100465.72;7719493;32;37686;-81
2022/10/31 16:54:05;;;;;;;32.80;16.65;;;;;;;13.96;68.59;100470.34;7736944;32;37946;-82
2022/10/31 16:58:30;;;;;;;29.48;14.75;;;;;;;14.04;68.28;100467.06;7734323;32;39203;-81
2022/10/31 17:02:48;;;;;;;27.58;14.43;;;;;;;14.13;68.03;100470.03;7716529;32;39877;-82
2022/10/31 17:07:04;;;;;;;25.42;13.75;;;;;;;13.73;68.82;100471.78;7725566;32;37325;-83
2022/10/31 17:11:24;;;;;;;33.17;14.55;;;;;;;13.85;68.67;100474.22;7713978;32;37311;-80
2022/10/31 17:15:46;;;;;;;27.02;14.52;;;;;;;13.81;68.82;100481.34;7734002;32;40182;-80
2022/10/31 17:20:35;;;;;;;24.30;14.23;;;;;;;13.64;69.64;100478.91;7709484;32;39836;-80
2022/10/31 17:24:51;;;;;;;26.08;13.30;;;;;;;13.80;68.79;100491.50;7701861;32;38712;-82
2022/10/31 17:29:07;;;;;;;31.08;15.45;;;;;;;13.82;69.02;100489.28;7710620;32;37389;-81
2022/10/31 17:33:23;;;;;;;25.92;14.52;;;;;;;13.73;69.02;100493.69;7717948;32;39240;-84
2022/10/31 17:37:42;;;;;;;35.25;15.23;;;;;;;13.27;70.84;100497.22;7708643;32;39599;-83
2022/10/31 17:41:59;;;;;;;30.67;13.82;;;;;;;13.56;69.90;100493.16;7717846;32;37763;-81
2022/10/31 17:46:16;;;;;;;28.25;14.75;;;;;;;13.82;68.85;100489.28;7723856;32;37763;-81
2022/10/31 17:50:32;;;;;;;28.10;14.00;;;;;;;13.61;69.26;100490.44;7717753;32;39567;-81
2022/10/31 17:54:49;;;;;;;24.00;12.93;;;;;;;13.72;68.83;100492.03;7710852;32;40887;-82
2022/10/31 17:59:05;;;;;;;26.75;14.20;;;;;;;13.66;69.38;100482.16;7735365;32;38565;-83
2022/10/31 18:03:26;;;;;;;25.10;13.60;;;;;;;13.21;70.42;100487.38;7717395;32;37993;-80
2022/10/31 18:07:42;;;;;;;26.23;13.30;;;;;;;13.38;70.00;100487.13;7720115;32;40078;-81
2022/10/31 18:11:59;;;;;;;24.08;12.40;;;;;;;13.81;68.18;100479.41;7717900;32;39816;-82
2022/10/31 18:16:18;;;;;;;24.95;13.68;;;;;;;13.37;69.61;100487.41;7737267;32;38003;-83
2022/10/31 18:20:34;;;;;;;25.02;12.55;;;;;;;13.49;69.24;100483.28;7731439;32;36598;-79
2022/10/31 18:24:50;;;;;;;25.65;13.55;;;;;;;13.57;68.73;100467.41;7713605;32;39381;-80
2022/10/31 18:29:06;;;;;;;23.75;12.73;;;;;;;13.68;68.34;100474.53;7728298;32;39906;-82
2022/10/31 18:33:22;;;;;;;24.00;11.68;;;;;;;13.44;69.13;100469.59;7722722;32;38056;-82
2022/10/31 18:37:38;;;;;;;19.55;9.90;;;;;;;12.83;70.88;100478.56;7712804;32;37288;-82
2022/10/31 18:41:55;;;;;;;22.20;11.85;;;;;;;12.61;72.04;100475.19;7713884;32;39500;-83
2022/10/31 18:46:14;;;;;;;20.67;11.15;;;;;;;12.91;71.02;100477.19;7712200;32;40024;-80
2022/10/31 18:50:30;;;;;;;21.92;10.55;;;;;;;12.93;70.94;100477.72;7736272;32;38754;-83
2022/10/31 18:54:47;;;;;;;20.75;11.25;;;;;;;13.18;70.67;100476.12;7736795;32;38740;-79
2022/10/31 18:59:03;;;;;;;20.37;11.05;;;;;;;13.46;69.57;100478.34;7720143;32;40015;-81
2022/10/31 19:03:22;;;;;;;19.70;10.70;;;;;;;13.01;70.26;100479.12;7729290;32;40579;-80
2022/10/31 19:07:41;;;;;;;24.77;11.07;;;;;;;13.21;69.67;100483.78;7737757;32;37992;-82
2022/10/31 19:11:57;;;;;;;22.33;11.30;;;;;;;12.98;70.73;100477.75;7738301;32;37312;-80
2022/10/31 19:16:15;;;;;;;24.30;11.60;;;;;;;13.14;70.44;100482.16;7738329;32;40476;-81
2022/10/31 19:20:31;;;;;;;27.55;11.38;;;;;;;13.14;70.25;100476.69;7738670;32;42413;-82
2022/10/31 19:24:48;;;;;;;23.73;11.90;;;;;;;13.04;70.94;100481.31;7738630;32;38583;-83
2022/10/31 19:29:05;;;;;;;22.00;11.93;;;;;;;13.25;70.01;100482.16;7734680;32;37343;-79
2022/10/31 19:33:24;;;;;;;23.58;11.63;;;;;;;13.36;69.87;100478.34;7738360;32;39929;-78
2022/10/31 19:37:47;;;;;;;22.20;12.10;;;;;;;13.57;69.00;100481.09;7711970;32;39027;-78
2022/10/31 19:42:04;;;;;;;23.67;11.65;;;;;;;13.16;70.85;100479.16;7697816;32;37957;-78
2022/10/31 19:46:23;;;;;;;24.30;12.57;;;;;;;12.90;71.66;100465.44;7716129;32;36265;-80
2022/10/31 19:51:01;;;;;;;21.15;11.30;;;;;;;13.51;69.50;100472.88;7726319;32;40341;-81